Share

Wausau, WI

Hawthorn Hills Elementary School (KWIWAUSA4) Elev 1322 ft | 44.96 °N, 89.61 °W | Change Station

Current weather conditions updated 25 seconds ago

Overcast
Overcast
38.5 °F
Feels Like 38 °F
N
3.0
Wind Variable Wind from WSW
Gusts 15.0 mph
Sunrise 6:10 AM
Sunset 7:46 PM
Moon Waning Gibbous

Tomorrow is forecast to be Warmer than today.

Pressure 30.22 in
Visibility 10.0 miles
Clouds Overcast 1800 ft
Windchill 38 °F
Dew Point 34 °F
Humidity 82%
Rainfall 0.18 in
Snow Depth Not available.
UV 1 out of 16
Pollen 5.70 out of 12
Air Quality Not available.
Flu Activity Sporadic
METAR KRRL 172215Z AUTO 00000KT 10SM OVC018 03/00 A3022 RMK AO2 T00260000

More Conditions Fewer Conditions

Pressure 30.22 in
Visibility 10.0 miles
Clouds Overcast 1800 ft
Windchill 38 °F
Dew Point 34 °F
Humidity 82%
Rainfall 0.18 in
Snow Depth Not available.
UV 1 out of 16
Pollen 5.70 out of 12
Air Quality Not available.
Flu Activity Sporadic
METAR KRRL 172215Z AUTO 00000KT 10SM OVC018 03/00 A3022 RMK AO2 T00260000

More Conditions Fewer Conditions

10-Day Forecast

Almanac

Astronomy

Apr. 17, 2014 Rise Set
Actual Time 6:10 AM CDT 7:46 PM CDT
Civil Twilight 5:39 AM CDT 8:17 PM CDT
Nautical Twilight 5:02 AM CDT 8:55 PM CDT
Astronomical Twilight 4:22 AM CDT 9:35 PM CDT
Moon 10:37 PM CDT 7:37 AM CDT
Length of Visible Light 14h 37m
Length of Day
13h 36m
Tomorrow will be 2m 59s longer.
Waning Gibbous, 92% of the Moon is Illuminated
Today
Waning Gibbous
Apr 22
Last Quarter
Apr 29
New
May 6
First Quarter
May 14
Full

Today's Extremes

State Highs State Lows

Community

  • Morning Light
    Morning Light
  • New Day
    New Day
  • Lake Michigan Sunrise
    Lake Michigan Sunrise
  • sunset from izmir, narlıdere
    sunset from izmir, narlıdere
  • oregon cherry
    oregon cherry

WunderPhotos

Upload Photos

1,702,156 photos uploaded!

WunderBlogs® & News

Nearby

Snow Depth

Station Depth Elevation
No new snow has been reported.

Coastal Water Temperatures

Place Temperature
No Stations Reporting

Earthquake Activity

City Distance Mag. Time & Date
No recent earthquake activity has been reported nearby.
Minimum magnitude displayed is 2.5.

Nearby Weather Stations

Station Location Temp. Windchill Dew Point Humidity Wind Precip. Elev Updated Type
Hawthorn Hills Elementary School, Wausau, WI 38.5 °F 38 °F 34 °F 82% WSW  at  3.0 mph 0.00 in / hr 1322 ft 5:40 PM CDT Rapid Fire
Knopf's House, Weston, WI 38.5 °F 36 °F 33 °F 79% NNW  at  3.2 mph - / hr 1217 ft 5:37 PM CDT Normal
Single Elm tree Farm, Marathon, WI 36.0 °F 34 °F 33 °F 89% West  at  3.2 mph - / hr 1411 ft 5:38 PM CDT Normal
Rib Falls Repair, Athens, WI 36.6 °F 31 °F 33 °F 87% WNW  at  7.0 mph 0.00 in / hr 1322 ft 5:40 PM CDT Normal
RAWS Mead WI, Blenker, WI 39 °F 33 °F 35 °F 84% WNW  at  9 mph 0.00 in / hr 1149 ft 4:05 PM CDT MADIS

Show More Stations Show Fewer Stations

What do you think?

We're not finished. Please let us know what you like, what you don't like, and what you are still missing.